Ana Sayfa
METAR-TAF:

METAR-TAF

Havaalanları :

Doylestown Airport

Doylestown, Pensilvanya, Amerika Birleşik Devletleri

Enlem: 40-19-48N, Boylam: 075-07-21W, yükseklik: 120 m

Güncel hava durumu gözlemi

Rapor saat 07:54 UTC de 1 saat ve 4 dakika önce yapıldı.
Sakin rüzgar
Sıcaklık 21°C
Nem 88%
Basınç 1014 hPa
Görüş mesafesi: 8.0 km
600 ft yükseklikte az bulutlu
Pus

METAR: KDYL 180754Z AUTO 00000KT 5SM BR FEW006 21/19 A2994 RMK AO2 SLP134 T02060189

Saat: 04:58 (08:58 UTC)


TAF: eksik

4.000'den fazla havaalanı için hava durumu gözlemleri ve tahminleri (METAR ve TAF raporları).

Kullanılabilir istasyonlar harita üzerinde sarı ve kırmızı noktalarla gösterilir.

İstasyonun adını görmek için fareyi noktanın üzerinde gezdirin.

Sonrasında hava gözlem ve tahminlerini görmek için tıklayın.

Haritayı değiştirmek için: yaklaştırmak için siyah artı işaretli yeşil düğmeye ve uzaklaştırmak için de eksi işaretli düğmeye hızla tıklayın; bitişik haritalar için yeşil okları kullanın.


METAR-TAF: